sensor_id;sensor_type;location;lat;lon;timestamp;pressure;altitude;pressure_sealevel;temperature;humidity
36598;BME280;22607;49.550;11.940;2022-08-19T00:02:00;96252.81;;;21.19;100.00
36598;BME280;22607;49.550;11.940;2022-08-19T00:04:33;96243.59;;;21.00;100.00
36598;BME280;22607;49.550;11.940;2022-08-19T00:07:05;96247.09;;;21.05;100.00
36598;BME280;22607;49.550;11.940;2022-08-19T00:09:31;96244.13;;;21.02;100.00
36598;BME280;22607;49.550;11.940;2022-08-19T00:11:58;96240.31;;;20.92;100.00
36598;BME280;22607;49.550;11.940;2022-08-19T00:14:26;96243.97;;;20.86;100.00
36598;BME280;22607;49.550;11.940;2022-08-19T00:16:54;96234.72;;;20.94;100.00
36598;BME280;22607;49.550;11.940;2022-08-19T00:19:22;96237.63;;;20.92;100.00
36598;BME280;22607;49.550;11.940;2022-08-19T00:21:51;96239.25;;;20.93;100.00
36598;BME280;22607;49.550;11.940;2022-08-19T00:24:18;96228.88;;;20.97;100.00
36598;BME280;22607;49.550;11.940;2022-08-19T00:26:46;96237.44;;;20.99;100.00
36598;BME280;22607;49.550;11.940;2022-08-19T00:29:15;96231.28;;;20.98;100.00
36598;BME280;22607;49.550;11.940;2022-08-19T00:31:44;96228.44;;;20.83;100.00
36598;BME280;22607;49.550;11.940;2022-08-19T00:34:13;96224.78;;;20.89;100.00
36598;BME280;22607;49.550;11.940;2022-08-19T00:36:41;96223.31;;;20.76;100.00
36598;BME280;22607;49.550;11.940;2022-08-19T00:39:08;96213.16;;;20.73;100.00
36598;BME280;22607;49.550;11.940;2022-08-19T00:41:35;96211.38;;;20.84;100.00
36598;BME280;22607;49.550;11.940;2022-08-19T00:44:11;96220.41;;;20.78;100.00
36598;BME280;22607;49.550;11.940;2022-08-19T00:46:42;96222.94;;;20.90;100.00
36598;BME280;22607;49.550;11.940;2022-08-19T00:49:17;96228.81;;;20.92;100.00
36598;BME280;22607;49.550;11.940;2022-08-19T00:51:48;96224.25;;;20.87;100.00
36598;BME280;22607;49.550;11.940;2022-08-19T00:54:17;96237.09;;;20.90;100.00
36598;BME280;22607;49.550;11.940;2022-08-19T00:56:53;96244.78;;;20.87;100.00
36598;BME280;22607;49.550;11.940;2022-08-19T00:59:21;96251.41;;;20.84;100.00
36598;BME280;22607;49.550;11.940;2022-08-19T01:02:08;96249.50;;;20.79;100.00
36598;BME280;22607;49.550;11.940;2022-08-19T01:04:35;96253.94;;;20.68;100.00
36598;BME280;22607;49.550;11.940;2022-08-19T01:07:02;96236.63;;;20.71;100.00
36598;BME280;22607;49.550;11.940;2022-08-19T01:09:29;96255.25;;;20.66;100.00
36598;BME280;22607;49.550;11.940;2022-08-19T01:11:57;96269.88;;;20.63;100.00
36598;BME280;22607;49.550;11.940;2022-08-19T01:14:24;96271.06;;;20.72;100.00
36598;BME280;22607;49.550;11.940;2022-08-19T01:16:53;96270.13;;;20.62;100.00
36598;BME280;22607;49.550;11.940;2022-08-19T01:19:27;96271.78;;;20.68;100.00
36598;BME280;22607;49.550;11.940;2022-08-19T01:22:01;96273.34;;;20.64;100.00
36598;BME280;22607;49.550;11.940;2022-08-19T01:24:39;96276.25;;;20.57;100.00
36598;BME280;22607;49.550;11.940;2022-08-19T01:27:15;96280.56;;;20.63;100.00
36598;BME280;22607;49.550;11.940;2022-08-19T01:29:43;96296.41;;;20.75;100.00
36598;BME280;22607;49.550;11.940;2022-08-19T01:32:13;96289.78;;;20.78;100.00
36598;BME280;22607;49.550;11.940;2022-08-19T01:34:59;96282.78;;;20.71;100.00
36598;BME280;22607;49.550;11.940;2022-08-19T01:37:29;96278.00;;;20.73;100.00
36598;BME280;22607;49.550;11.940;2022-08-19T01:39:57;96272.22;;;20.82;100.00
36598;BME280;22607;49.550;11.940;2022-08-19T01:42:24;96277.78;;;20.80;100.00
36598;BME280;22607;49.550;11.940;2022-08-19T01:44:56;96276.09;;;20.69;100.00
36598;BME280;22607;49.550;11.940;2022-08-19T01:47:23;96280.47;;;20.53;100.00
36598;BME280;22607;49.550;11.940;2022-08-19T01:49:50;96284.53;;;20.16;100.00
36598;BME280;22607;49.550;11.940;2022-08-19T01:52:17;96286.41;;;20.38;100.00
36598;BME280;22607;49.550;11.940;2022-08-19T01:54:44;96277.91;;;20.63;100.00
36598;BME280;22607;49.550;11.940;2022-08-19T01:57:13;96278.97;;;20.62;100.00
36598;BME280;22607;49.550;11.940;2022-08-19T01:59:42;96291.06;;;20.48;100.00
36598;BME280;22607;49.550;11.940;2022-08-19T02:02:10;96290.06;;;20.54;100.00
36598;BME280;22607;49.550;11.940;2022-08-19T02:04:38;96285.84;;;20.58;100.00
36598;BME280;22607;49.550;11.940;2022-08-19T02:07:06;96283.63;;;20.50;100.00
36598;BME280;22607;49.550;11.940;2022-08-19T02:09:35;96292.56;;;20.38;100.00
36598;BME280;22607;49.550;11.940;2022-08-19T02:12:01;96296.13;;;20.49;100.00
36598;BME280;22607;49.550;11.940;2022-08-19T02:14:28;96297.81;;;20.55;100.00
36598;BME280;22607;49.550;11.940;2022-08-19T02:16:56;96287.72;;;20.35;100.00
36598;BME280;22607;49.550;11.940;2022-08-19T02:19:22;96305.25;;;20.53;100.00
36598;BME280;22607;49.550;11.940;2022-08-19T02:21:49;96309.91;;;20.63;100.00
36598;BME280;22607;49.550;11.940;2022-08-19T02:24:16;96317.16;;;20.68;100.00
36598;BME280;22607;49.550;11.940;2022-08-19T02:26:42;96334.84;;;20.74;100.00
36598;BME280;22607;49.550;11.940;2022-08-19T02:29:09;96343.09;;;20.72;100.00
36598;BME280;22607;49.550;11.940;2022-08-19T02:31:35;96341.03;;;20.80;100.00
36598;BME280;22607;49.550;11.940;2022-08-19T02:34:02;96334.03;;;20.73;100.00
36598;BME280;22607;49.550;11.940;2022-08-19T02:36:30;96339.41;;;20.79;100.00
36598;BME280;22607;49.550;11.940;2022-08-19T02:38:56;96334.59;;;20.76;100.00
36598;BME280;22607;49.550;11.940;2022-08-19T02:41:26;96337.66;;;20.62;100.00
36598;BME280;22607;49.550;11.940;2022-08-19T02:43:58;96338.19;;;20.64;100.00
36598;BME280;22607;49.550;11.940;2022-08-19T02:46:47;96344.53;;;20.58;100.00
36598;BME280;22607;49.550;11.940;2022-08-19T02:49:14;96332.44;;;20.50;100.00
36598;BME280;22607;49.550;11.940;2022-08-19T02:51:45;96325.63;;;20.59;100.00
36598;BME280;22607;49.550;11.940;2022-08-19T02:54:13;96330.94;;;20.59;100.00
36598;BME280;22607;49.550;11.940;2022-08-19T02:56:42;96332.66;;;20.71;100.00
36598;BME280;22607;49.550;11.940;2022-08-19T02:59:09;96319.88;;;20.73;100.00
36598;BME280;22607;49.550;11.940;2022-08-19T03:01:39;96322.28;;;20.75;100.00
36598;BME280;22607;49.550;11.940;2022-08-19T03:04:08;96317.16;;;20.68;100.00
36598;BME280;22607;49.550;11.940;2022-08-19T03:06:37;96325.28;;;20.78;100.00
36598;BME280;22607;49.550;11.940;2022-08-19T03:09:04;96319.38;;;20.76;100.00
36598;BME280;22607;49.550;11.940;2022-08-19T03:11:32;96313.78;;;20.78;100.00
36598;BME280;22607;49.550;11.940;2022-08-19T03:14:01;96304.47;;;20.80;100.00
36598;BME280;22607;49.550;11.940;2022-08-19T03:16:31;96293.66;;;20.65;100.00
36598;BME280;22607;49.550;11.940;2022-08-19T03:19:00;96287.50;;;20.64;100.00
36598;BME280;22607;49.550;11.940;2022-08-19T03:21:30;96289.56;;;20.57;100.00
36598;BME280;22607;49.550;11.940;2022-08-19T03:23:59;96288.06;;;20.66;100.00
36598;BME280;22607;49.550;11.940;2022-08-19T03:26:27;96286.34;;;20.55;100.00
36598;BME280;22607;49.550;11.940;2022-08-19T03:28:54;96290.00;;;20.49;100.00
36598;BME280;22607;49.550;11.940;2022-08-19T03:31:26;96297.31;;;20.58;100.00
36598;BME280;22607;49.550;11.940;2022-08-19T03:34:19;96300.72;;;20.09;100.00
36598;BME280;22607;49.550;11.940;2022-08-19T03:36:47;96287.84;;;20.45;100.00
36598;BME280;22607;49.550;11.940;2022-08-19T03:39:14;96291.84;;;20.48;100.00
36598;BME280;22607;49.550;11.940;2022-08-19T03:41:43;96289.88;;;20.61;100.00
36598;BME280;22607;49.550;11.940;2022-08-19T03:44:15;96279.00;;;20.67;100.00
36598;BME280;22607;49.550;11.940;2022-08-19T03:46:50;96277.31;;;20.61;100.00
36598;BME280;22607;49.550;11.940;2022-08-19T03:49:19;96277.47;;;20.49;100.00
36598;BME280;22607;49.550;11.940;2022-08-19T03:51:47;96271.78;;;20.68;100.00
36598;BME280;22607;49.550;11.940;2022-08-19T03:54:20;96271.44;;;20.59;100.00
36598;BME280;22607;49.550;11.940;2022-08-19T03:56:51;96278.09;;;20.56;100.00
36598;BME280;22607;49.550;11.940;2022-08-19T03:59:23;96291.13;;;20.53;100.00
36598;BME280;22607;49.550;11.940;2022-08-19T04:01:56;96292.78;;;20.59;100.00
36598;BME280;22607;49.550;11.940;2022-08-19T04:04:23;96288.25;;;20.59;100.00
36598;BME280;22607;49.550;11.940;2022-08-19T04:06:55;96297.63;;;20.62;100.00
36598;BME280;22607;49.550;11.940;2022-08-19T04:09:21;96307.19;;;20.58;100.00
36598;BME280;22607;49.550;11.940;2022-08-19T04:11:50;96314.63;;;20.56;100.00
36598;BME280;22607;49.550;11.940;2022-08-19T04:14:24;96317.09;;;20.40;100.00
36598;BME280;22607;49.550;11.940;2022-08-19T04:16:52;96342.41;;;20.60;100.00
36598;BME280;22607;49.550;11.940;2022-08-19T04:19:19;96351.78;;;20.63;100.00
36598;BME280;22607;49.550;11.940;2022-08-19T04:21:49;96368.34;;;20.65;100.00
36598;BME280;22607;49.550;11.940;2022-08-19T04:24:17;96370.63;;;20.78;100.00
36598;BME280;22607;49.550;11.940;2022-08-19T04:26:45;96371.13;;;20.75;100.00
36598;BME280;22607;49.550;11.940;2022-08-19T04:29:30;96378.13;;;20.59;100.00
36598;BME280;22607;49.550;11.940;2022-08-19T04:31:58;96372.50;;;20.55;100.00
36598;BME280;22607;49.550;11.940;2022-08-19T04:34:26;96379.31;;;20.46;100.00
36598;BME280;22607;49.550;11.940;2022-08-19T04:36:56;96374.78;;;20.46;100.00
36598;BME280;22607;49.550;11.940;2022-08-19T04:39:29;96388.00;;;20.58;100.00
36598;BME280;22607;49.550;11.940;2022-08-19T04:42:16;96393.84;;;20.55;100.00
36598;BME280;22607;49.550;11.940;2022-08-19T04:45:03;96392.34;;;20.65;100.00
36598;BME280;22607;49.550;11.940;2022-08-19T04:47:30;96386.09;;;20.54;100.00
36598;BME280;22607;49.550;11.940;2022-08-19T04:50:18;96395.28;;;20.63;100.00
36598;BME280;22607;49.550;11.940;2022-08-19T04:52:45;96401.72;;;20.67;100.00
36598;BME280;22607;49.550;11.940;2022-08-19T04:55:12;96407.13;;;20.33;100.00
36598;BME280;22607;49.550;11.940;2022-08-19T04:57:40;96408.19;;;20.32;100.00
36598;BME280;22607;49.550;11.940;2022-08-19T05:00:08;96418.88;;;20.54;100.00
36598;BME280;22607;49.550;11.940;2022-08-19T05:02:35;96419.81;;;20.65;100.00
36598;BME280;22607;49.550;11.940;2022-08-19T05:05:03;96423.13;;;20.72;100.00
36598;BME280;22607;49.550;11.940;2022-08-19T05:07:29;96421.47;;;20.66;100.00
36598;BME280;22607;49.550;11.940;2022-08-19T05:09:57;96419.94;;;20.53;100.00
36598;BME280;22607;49.550;11.940;2022-08-19T05:12:25;96419.53;;;20.62;100.00
36598;BME280;22607;49.550;11.940;2022-08-19T05:14:56;96409.66;;;20.84;100.00
36598;BME280;22607;49.550;11.940;2022-08-19T05:17:25;96403.59;;;20.89;100.00
36598;BME280;22607;49.550;11.940;2022-08-19T05:19:55;96395.41;;;20.96;100.00
36598;BME280;22607;49.550;11.940;2022-08-19T05:22:43;96387.59;;;20.89;100.00
36598;BME280;22607;49.550;11.940;2022-08-19T05:25:13;96388.84;;;21.04;100.00
36598;BME280;22607;49.550;11.940;2022-08-19T05:27:41;96395.63;;;21.17;100.00
36598;BME280;22607;49.550;11.940;2022-08-19T05:30:09;96389.88;;;20.80;100.00
36598;BME280;22607;49.550;11.940;2022-08-19T05:32:36;96395.78;;;21.05;100.00
36598;BME280;22607;49.550;11.940;2022-08-19T05:35:04;96406.88;;;20.74;100.00
36598;BME280;22607;49.550;11.940;2022-08-19T05:37:31;96411.84;;;21.10;100.00
36598;BME280;22607;49.550;11.940;2022-08-19T05:39:58;96404.75;;;21.21;100.00
36598;BME280;22607;49.550;11.940;2022-08-19T05:42:24;96418.25;;;21.36;100.00
36598;BME280;22607;49.550;11.940;2022-08-19T05:44:52;96421.75;;;21.37;100.00
36598;BME280;22607;49.550;11.940;2022-08-19T05:49:47;96422.91;;;21.46;100.00
36598;BME280;22607;49.550;11.940;2022-08-19T05:52:19;96420.31;;;21.57;100.00
36598;BME280;22607;49.550;11.940;2022-08-19T05:54:52;96426.56;;;21.68;100.00
36598;BME280;22607;49.550;11.940;2022-08-19T05:57:22;96429.13;;;21.85;100.00
36598;BME280;22607;49.550;11.940;2022-08-19T05:59:49;96430.78;;;21.91;100.00
36598;BME280;22607;49.550;11.940;2022-08-19T06:02:25;96432.38;;;22.30;100.00
36598;BME280;22607;49.550;11.940;2022-08-19T06:04:52;96429.31;;;23.07;100.00
36598;BME280;22607;49.550;11.940;2022-08-19T06:07:19;96407.72;;;23.71;100.00
36598;BME280;22607;49.550;11.940;2022-08-19T06:09:46;96413.28;;;24.63;100.00
36598;BME280;22607;49.550;11.940;2022-08-19T06:12:26;96410.19;;;25.47;100.00
36598;BME280;22607;49.550;11.940;2022-08-19T06:14:57;96413.06;;;25.21;100.00
36598;BME280;22607;49.550;11.940;2022-08-19T06:17:27;96411.44;;;25.20;100.00
36598;BME280;22607;49.550;11.940;2022-08-19T06:19:57;96408.47;;;24.55;100.00
36598;BME280;22607;49.550;11.940;2022-08-19T06:22:25;96412.56;;;24.01;100.00
36598;BME280;22607;49.550;11.940;2022-08-19T06:24:53;96410.41;;;23.56;100.00
36598;BME280;22607;49.550;11.940;2022-08-19T06:27:20;96407.22;;;23.59;100.00
36598;BME280;22607;49.550;11.940;2022-08-19T06:29:47;96406.66;;;23.67;100.00
36598;BME280;22607;49.550;11.940;2022-08-19T06:32:15;96408.00;;;24.27;100.00
36598;BME280;22607;49.550;11.940;2022-08-19T06:34:42;96404.50;;;25.08;100.00
36598;BME280;22607;49.550;11.940;2022-08-19T06:37:11;96412.81;;;25.17;100.00
36598;BME280;22607;49.550;11.940;2022-08-19T06:39:39;96407.38;;;26.56;98.70
36598;BME280;22607;49.550;11.940;2022-08-19T06:42:07;96398.00;;;26.78;98.29
36598;BME280;22607;49.550;11.940;2022-08-19T06:44:40;96398.97;;;26.09;99.59
36598;BME280;22607;49.550;11.940;2022-08-19T06:47:10;96403.97;;;25.91;100.00
36598;BME280;22607;49.550;11.940;2022-08-19T06:49:48;96414.94;;;25.15;100.00
36598;BME280;22607;49.550;11.940;2022-08-19T06:52:15;96419.94;;;24.76;100.00
36598;BME280;22607;49.550;11.940;2022-08-19T06:54:42;96422.97;;;24.44;100.00
36598;BME280;22607;49.550;11.940;2022-08-19T06:57:26;96417.84;;;24.63;100.00
36598;BME280;22607;49.550;11.940;2022-08-19T06:59:53;96414.38;;;24.52;100.00
36598;BME280;22607;49.550;11.940;2022-08-19T07:02:19;96423.00;;;24.33;100.00
36598;BME280;22607;49.550;11.940;2022-08-19T07:04:47;96431.09;;;24.18;100.00
36598;BME280;22607;49.550;11.940;2022-08-19T07:07:20;96433.22;;;24.05;100.00
36598;BME280;22607;49.550;11.940;2022-08-19T07:09:49;96441.53;;;23.98;100.00
36598;BME280;22607;49.550;11.940;2022-08-19T07:12:27;96442.06;;;23.75;100.00
36598;BME280;22607;49.550;11.940;2022-08-19T07:14:56;96442.06;;;23.59;100.00
36598;BME280;22607;49.550;11.940;2022-08-19T07:17:25;96442.81;;;23.49;100.00
36598;BME280;22607;49.550;11.940;2022-08-19T07:19:52;96445.78;;;23.47;100.00
36598;BME280;22607;49.550;11.940;2022-08-19T07:22:20;96451.34;;;23.30;100.00
36598;BME280;22607;49.550;11.940;2022-08-19T07:24:50;96451.94;;;23.43;100.00
36598;BME280;22607;49.550;11.940;2022-08-19T07:27:18;96458.06;;;23.38;100.00
36598;BME280;22607;49.550;11.940;2022-08-19T07:29:53;96462.03;;;23.30;100.00
36598;BME280;22607;49.550;11.940;2022-08-19T07:32:23;96456.94;;;23.24;100.00
36598;BME280;22607;49.550;11.940;2022-08-19T07:34:53;96450.22;;;23.16;100.00
36598;BME280;22607;49.550;11.940;2022-08-19T07:37:22;96426.88;;;23.06;100.00
36598;BME280;22607;49.550;11.940;2022-08-19T07:39:48;96434.66;;;23.02;100.00
36598;BME280;22607;49.550;11.940;2022-08-19T07:42:15;96423.91;;;22.97;100.00
36598;BME280;22607;49.550;11.940;2022-08-19T07:44:47;96427.38;;;22.92;100.00
36598;BME280;22607;49.550;11.940;2022-08-19T07:47:17;96431.91;;;22.81;100.00
36598;BME280;22607;49.550;11.940;2022-08-19T07:50:07;96435.56;;;22.65;100.00
36598;BME280;22607;49.550;11.940;2022-08-19T07:52:36;96438.78;;;22.67;100.00
36598;BME280;22607;49.550;11.940;2022-08-19T07:55:07;96431.03;;;22.65;100.00
36598;BME280;22607;49.550;11.940;2022-08-19T07:57:54;96429.22;;;22.81;100.00
36598;BME280;22607;49.550;11.940;2022-08-19T08:00:21;96424.41;;;22.89;100.00
36598;BME280;22607;49.550;11.940;2022-08-19T08:02:50;96425.50;;;22.88;100.00
36598;BME280;22607;49.550;11.940;2022-08-19T08:05:16;96432.47;;;22.94;100.00
36598;BME280;22607;49.550;11.940;2022-08-19T08:08:08;96436.72;;;22.90;100.00
36598;BME280;22607;49.550;11.940;2022-08-19T08:10:54;96439.66;;;22.83;100.00
36598;BME280;22607;49.550;11.940;2022-08-19T08:13:24;96448.22;;;22.80;100.00
36598;BME280;22607;49.550;11.940;2022-08-19T08:15:52;96450.09;;;22.85;100.00
36598;BME280;22607;49.550;11.940;2022-08-19T08:18:21;96454.91;;;22.83;100.00
36598;BME280;22607;49.550;11.940;2022-08-19T08:20:53;96452.72;;;22.74;100.00
36598;BME280;22607;49.550;11.940;2022-08-19T08:23:20;96452.41;;;22.60;100.00
36598;BME280;22607;49.550;11.940;2022-08-19T08:25:57;96448.97;;;22.70;100.00
36598;BME280;22607;49.550;11.940;2022-08-19T08:28:25;96446.06;;;22.82;100.00
36598;BME280;22607;49.550;11.940;2022-08-19T08:30:56;96440.47;;;22.89;100.00
36598;BME280;22607;49.550;11.940;2022-08-19T08:33:25;96439.75;;;23.09;100.00
36598;BME280;22607;49.550;11.940;2022-08-19T08:36:00;96432.00;;;23.13;100.00
36598;BME280;22607;49.550;11.940;2022-08-19T08:38:30;96449.91;;;23.02;100.00
36598;BME280;22607;49.550;11.940;2022-08-19T08:44:00;96442.38;;;22.88;100.00
36598;BME280;22607;49.550;11.940;2022-08-19T08:46:42;96445.94;;;23.10;100.00
36598;BME280;22607;49.550;11.940;2022-08-19T08:51:42;96449.44;;;22.62;100.00
36598;BME280;22607;49.550;11.940;2022-08-19T08:54:14;96449.53;;;22.77;100.00
36598;BME280;22607;49.550;11.940;2022-08-19T08:56:45;96439.69;;;22.88;100.00
36598;BME280;22607;49.550;11.940;2022-08-19T08:59:23;96444.84;;;23.11;100.00
36598;BME280;22607;49.550;11.940;2022-08-19T09:01:52;96434.44;;;23.19;100.00
36598;BME280;22607;49.550;11.940;2022-08-19T09:04:19;96444.63;;;23.28;100.00
36598;BME280;22607;49.550;11.940;2022-08-19T09:15:29;96425.72;;;23.71;100.00
36598;BME280;22607;49.550;11.940;2022-08-19T09:18:03;96418.19;;;23.99;100.00
36598;BME280;22607;49.550;11.940;2022-08-19T09:20:32;96415.25;;;24.21;100.00
36598;BME280;22607;49.550;11.940;2022-08-19T09:22:59;96413.91;;;24.24;100.00
36598;BME280;22607;49.550;11.940;2022-08-19T09:25:27;96410.88;;;24.46;100.00
36598;BME280;22607;49.550;11.940;2022-08-19T09:27:55;96419.75;;;24.47;100.00
36598;BME280;22607;49.550;11.940;2022-08-19T09:30:31;96424.34;;;24.31;100.00
36598;BME280;22607;49.550;11.940;2022-08-19T09:32:59;96420.28;;;24.44;100.00
36598;BME280;22607;49.550;11.940;2022-08-19T09:35:27;96408.50;;;24.34;100.00
36598;BME280;22607;49.550;11.940;2022-08-19T09:37:56;96406.38;;;24.21;100.00
36598;BME280;22607;49.550;11.940;2022-08-19T09:40:26;96405.81;;;24.39;100.00
36598;BME280;22607;49.550;11.940;2022-08-19T09:42:56;96400.34;;;24.71;100.00
36598;BME280;22607;49.550;11.940;2022-08-19T09:45:24;96411.13;;;24.60;100.00
36598;BME280;22607;49.550;11.940;2022-08-19T09:47:52;96414.63;;;24.56;100.00
36598;BME280;22607;49.550;11.940;2022-08-19T09:50:21;96410.16;;;24.15;100.00
36598;BME280;22607;49.550;11.940;2022-08-19T09:52:49;96420.88;;;24.20;100.00
36598;BME280;22607;49.550;11.940;2022-08-19T09:55:24;96419.75;;;24.52;100.00
36598;BME280;22607;49.550;11.940;2022-08-19T09:58:01;96434.28;;;24.35;100.00
36598;BME280;22607;49.550;11.940;2022-08-19T10:00:27;96433.47;;;24.35;100.00
36598;BME280;22607;49.550;11.940;2022-08-19T10:02:54;96432.94;;;24.38;100.00
36598;BME280;22607;49.550;11.940;2022-08-19T10:05:21;96428.06;;;24.45;100.00
36598;BME280;22607;49.550;11.940;2022-08-19T10:08:08;96433.38;;;24.71;100.00
36598;BME280;22607;49.550;11.940;2022-08-19T10:10:40;96416.19;;;24.72;100.00
36598;BME280;22607;49.550;11.940;2022-08-19T10:13:16;96425.88;;;24.68;100.00
36598;BME280;22607;49.550;11.940;2022-08-19T10:15:44;96432.63;;;24.50;100.00
36598;BME280;22607;49.550;11.940;2022-08-19T10:18:15;96442.88;;;24.32;100.00
36598;BME280;22607;49.550;11.940;2022-08-19T10:20:46;96447.16;;;24.33;100.00
36598;BME280;22607;49.550;11.940;2022-08-19T10:23:18;96455.47;;;24.32;100.00
36598;BME280;22607;49.550;11.940;2022-08-19T10:25:46;96446.34;;;24.38;100.00
36598;BME280;22607;49.550;11.940;2022-08-19T10:28:14;96451.44;;;24.39;100.00
36598;BME280;22607;49.550;11.940;2022-08-19T10:30:41;96455.19;;;24.44;100.00
36598;BME280;22607;49.550;11.940;2022-08-19T10:33:08;96457.88;;;24.38;100.00
36598;BME280;22607;49.550;11.940;2022-08-19T10:35:37;96460.06;;;24.26;100.00
36598;BME280;22607;49.550;11.940;2022-08-19T10:38:22;96472.41;;;24.22;100.00
36598;BME280;22607;49.550;11.940;2022-08-19T10:41:10;96465.38;;;24.05;100.00
36598;BME280;22607;49.550;11.940;2022-08-19T10:43:37;96463.28;;;24.23;100.00
36598;BME280;22607;49.550;11.940;2022-08-19T10:46:08;96464.59;;;24.25;100.00
36598;BME280;22607;49.550;11.940;2022-08-19T10:48:43;96467.00;;;24.32;100.00
36598;BME280;22607;49.550;11.940;2022-08-19T10:51:11;96467.03;;;24.17;100.00
36598;BME280;22607;49.550;11.940;2022-08-19T10:53:57;96467.81;;;24.22;100.00
36598;BME280;22607;49.550;11.940;2022-08-19T10:56:26;96463.25;;;24.28;100.00
36598;BME280;22607;49.550;11.940;2022-08-19T10:59:12;96453.34;;;24.13;100.00
36598;BME280;22607;49.550;11.940;2022-08-19T11:01:42;96455.50;;;24.16;100.00
36598;BME280;22607;49.550;11.940;2022-08-19T11:04:09;96461.09;;;24.04;100.00
36598;BME280;22607;49.550;11.940;2022-08-19T11:06:41;96454.13;;;23.82;100.00
36598;BME280;22607;49.550;11.940;2022-08-19T11:09:10;96454.66;;;23.95;100.00
36598;BME280;22607;49.550;11.940;2022-08-19T11:11:38;96457.09;;;24.07;100.00
36598;BME280;22607;49.550;11.940;2022-08-19T11:14:13;96455.19;;;23.92;100.00
36598;BME280;22607;49.550;11.940;2022-08-19T11:16:41;96450.66;;;23.97;100.00
36598;BME280;22607;49.550;11.940;2022-08-19T11:19:10;96449.31;;;24.05;100.00
36598;BME280;22607;49.550;11.940;2022-08-19T11:21:43;96442.31;;;23.83;100.00
36598;BME280;22607;49.550;11.940;2022-08-19T11:24:18;96440.72;;;23.93;100.00
36598;BME280;22607;49.550;11.940;2022-08-19T11:26:48;96450.91;;;23.96;100.00
36598;BME280;22607;49.550;11.940;2022-08-19T11:29:18;96449.03;;;23.91;100.00
36598;BME280;22607;49.550;11.940;2022-08-19T11:31:47;96452.53;;;23.86;100.00
36598;BME280;22607;49.550;11.940;2022-08-19T11:34:18;96452.78;;;23.90;100.00
36598;BME280;22607;49.550;11.940;2022-08-19T11:36:47;96452.00;;;23.90;100.00
36598;BME280;22607;49.550;11.940;2022-08-19T11:39:16;96445.03;;;23.94;100.00
36598;BME280;22607;49.550;11.940;2022-08-19T11:41:43;96444.72;;;23.90;100.00
36598;BME280;22607;49.550;11.940;2022-08-19T11:44:10;96444.47;;;23.92;100.00
36598;BME280;22607;49.550;11.940;2022-08-19T11:46:37;96450.38;;;23.89;100.00
36598;BME280;22607;49.550;11.940;2022-08-19T11:49:05;96453.03;;;23.63;100.00
36598;BME280;22607;49.550;11.940;2022-08-19T11:51:39;96448.22;;;23.70;100.00
36598;BME280;22607;49.550;11.940;2022-08-19T11:54:08;96454.38;;;23.60;100.00
36598;BME280;22607;49.550;11.940;2022-08-19T11:56:36;96448.75;;;23.67;100.00
36598;BME280;22607;49.550;11.940;2022-08-19T11:59:03;96443.91;;;23.74;100.00
36598;BME280;22607;49.550;11.940;2022-08-19T12:01:30;96437.50;;;23.91;100.00
36598;BME280;22607;49.550;11.940;2022-08-19T12:03:57;96431.38;;;24.11;100.00
36598;BME280;22607;49.550;11.940;2022-08-19T12:06:27;96431.88;;;23.87;100.00
36598;BME280;22607;49.550;11.940;2022-08-19T12:08:56;96428.94;;;23.99;100.00
36598;BME280;22607;49.550;11.940;2022-08-19T12:11:23;96435.13;;;24.10;100.00
36598;BME280;22607;49.550;11.940;2022-08-19T12:13:50;96419.28;;;24.08;100.00
36598;BME280;22607;49.550;11.940;2022-08-19T12:16:19;96421.72;;;24.10;100.00
36598;BME280;22607;49.550;11.940;2022-08-19T12:18:46;96421.44;;;24.22;100.00
36598;BME280;22607;49.550;11.940;2022-08-19T12:21:22;96418.19;;;24.25;100.00
36598;BME280;22607;49.550;11.940;2022-08-19T12:23:50;96422.75;;;24.04;100.00
36598;BME280;22607;49.550;11.940;2022-08-19T12:26:21;96423.56;;;23.99;100.00
36598;BME280;22607;49.550;11.940;2022-08-19T12:28:48;96418.22;;;24.09;100.00
36598;BME280;22607;49.550;11.940;2022-08-19T12:31:16;96413.91;;;24.08;100.00
36598;BME280;22607;49.550;11.940;2022-08-19T12:33:43;96416.06;;;24.22;100.00
36598;BME280;22607;49.550;11.940;2022-08-19T12:36:11;96413.88;;;24.29;100.00
36598;BME280;22607;49.550;11.940;2022-08-19T12:38:41;96421.72;;;24.10;100.00
36598;BME280;22607;49.550;11.940;2022-08-19T12:41:14;96415.50;;;24.04;100.00
36598;BME280;22607;49.550;11.940;2022-08-19T12:43:41;96414.47;;;23.84;100.00
36598;BME280;22607;49.550;11.940;2022-08-19T12:46:08;96417.94;;;23.85;100.00
36598;BME280;22607;49.550;11.940;2022-08-19T12:48:37;96402.13;;;23.99;100.00
36598;BME280;22607;49.550;11.940;2022-08-19T12:51:08;96403.44;;;24.07;100.00
36598;BME280;22607;49.550;11.940;2022-08-19T12:53:35;96399.41;;;24.25;100.00
36598;BME280;22607;49.550;11.940;2022-08-19T12:56:05;96397.81;;;24.19;100.00
36598;BME280;22607;49.550;11.940;2022-08-19T12:58:38;96408.00;;;24.06;100.00
36598;BME280;22607;49.550;11.940;2022-08-19T13:01:12;96412.03;;;24.30;100.00
36598;BME280;22607;49.550;11.940;2022-08-19T13:03:39;96419.28;;;24.24;100.00
36598;BME280;22607;49.550;11.940;2022-08-19T13:06:08;96411.19;;;24.34;100.00
36598;BME280;22607;49.550;11.940;2022-08-19T13:08:35;96416.31;;;24.20;100.00
36598;BME280;22607;49.550;11.940;2022-08-19T13:11:15;96420.34;;;24.28;100.00
36598;BME280;22607;49.550;11.940;2022-08-19T13:13:45;96430.53;;;24.05;100.00